Time;durP1;ratioP1;P1;durP2;ratioP2;P2;SDS_P1;SDS_P2;PMS_P1;PMS_P2;Temp;Humidity;BMP_temperature;BMP_pressure;BME280_temperature;BME280_humidity;BME280_pressure;Samples;Min_cycle;Max_cycle;Signal;HPM_P1;HPM_P2
2021/12/21 00:00:12;;;;;;;26.08;10.40;;;-3.00;99.90;;;;;;4998819;28;20026;-84
2021/12/21 00:02:38;;;;;;;20.40;11.07;;;-3.00;99.90;;;;;;4991765;28;20065;-84
2021/12/21 00:05:04;;;;;;;22.92;10.70;;;-3.10;99.90;;;;;;4955730;28;20042;-84
2021/12/21 00:07:30;;;;;;;22.13;10.88;;;-3.00;99.90;;;;;;5012576;28;20042;-84
2021/12/21 00:09:55;;;;;;;22.92;10.32;;;-3.10;99.90;;;;;;4967432;28;20034;-84
2021/12/21 00:12:25;;;;;;;18.80;9.65;;;-3.10;99.90;;;;;;4962923;28;20751;-83
2021/12/21 00:15:01;;;;;;;26.35;10.43;;;-2.90;99.90;;;;;;4965900;28;20030;-82
2021/12/21 00:25:18;;;;;;;22.92;11.38;;;-3.20;99.90;;;;;;4986383;28;20493;-83
2021/12/21 00:27:46;;;;;;;17.63;10.50;;;-3.20;99.90;;;;;;4998783;28;20406;-83
2021/12/21 00:30:12;;;;;;;23.90;10.52;;;-3.20;99.90;;;;;;4992452;28;20044;-83
2021/12/21 00:32:37;;;;;;;26.85;11.55;;;-3.30;99.90;;;;;;4994773;28;20030;-83
2021/12/21 00:35:03;;;;;;;23.73;10.63;;;-3.30;99.90;;;;;;4996740;28;20117;-84
2021/12/21 00:37:29;;;;;;;22.52;10.82;;;-3.30;99.90;;;;;;4989253;28;20042;-84
2021/12/21 00:39:55;;;;;;;25.15;10.88;;;-3.40;99.90;;;;;;4985197;28;20036;-83
2021/12/21 00:42:20;;;;;;;25.58;11.10;;;-3.30;99.90;;;;;;4967764;28;20033;-84
2021/12/21 00:44:46;;;;;;;23.88;11.77;;;-3.30;99.90;;;;;;5002840;28;20112;-84
2021/12/21 00:47:14;;;;;;;23.25;12.73;;;-3.30;99.90;;;;;;5004259;28;20623;-84
2021/12/21 00:49:44;;;;;;;28.83;12.70;;;-3.40;99.90;;;;;;5006486;28;20044;-84
2021/12/21 00:52:10;;;;;;;22.20;10.85;;;-3.40;99.90;;;;;;5005849;28;20113;-84
2021/12/21 00:54:35;;;;;;;24.08;11.02;;;-3.50;99.90;;;;;;4991282;28;20048;-84
2021/12/21 00:57:04;;;;;;;32.25;11.60;;;-3.50;99.90;;;;;;4989146;28;20041;-84
2021/12/21 00:59:30;;;;;;;24.30;11.00;;;-3.50;99.90;;;;;;4991246;28;20034;-84
2021/12/21 01:01:55;;;;;;;22.83;11.02;;;-3.60;99.90;;;;;;4978023;28;20033;-84
2021/12/21 01:04:26;;;;;;;23.77;10.30;;;-3.60;99.90;;;;;;4998357;28;20042;-83
2021/12/21 01:07:10;;;;;;;25.73;11.95;;;-3.60;99.90;;;;;;4996466;28;20116;-84
2021/12/21 01:10:05;;;;;;;24.02;10.60;;;-3.60;99.90;;;;;;4981358;28;20037;-84
2021/12/21 01:18:03;;;;;;;26.05;11.63;;;-3.60;99.90;;;;;;4973113;28;20120;-84
2021/12/21 01:20:48;;;;;;;21.75;11.27;;;-3.70;99.90;;;;;;4985911;28;20048;-84
2021/12/21 01:36:44;;;;;;;26.23;11.63;;;-3.70;99.90;;;;;;4990346;28;20076;-83
2021/12/21 01:49:39;;;;;;;23.55;11.85;;;-3.70;99.90;;;;;;5003984;28;20122;-83
2021/12/21 01:52:09;;;;;;;20.75;9.98;;;-3.70;99.90;;;;;;4992565;28;20042;-84
2021/12/21 01:54:35;;;;;;;21.48;10.45;;;-3.70;99.90;;;;;;4998678;28;20490;-84
2021/12/21 01:57:01;;;;;;;19.50;10.65;;;-3.80;99.90;;;;;;4990729;28;20129;-84
2021/12/21 01:59:26;;;;;;;33.55;11.60;;;-3.80;99.90;;;;;;4981576;28;20066;-83
2021/12/21 02:01:52;;;;;;;25.42;11.82;;;-3.80;99.90;;;;;;4986334;28;20393;-84
2021/12/21 02:04:17;;;;;;;23.58;11.35;;;-3.80;99.90;;;;;;4991888;28;20062;-84
2021/12/21 02:06:43;;;;;;;25.13;11.40;;;-3.90;99.90;;;;;;4982031;28;20041;-84
2021/12/21 02:09:09;;;;;;;28.95;12.55;;;-3.90;99.90;;;;;;4995472;28;20058;-84
2021/12/21 02:11:34;;;;;;;20.08;11.25;;;-3.90;99.90;;;;;;4969762;28;20367;-83
2021/12/21 02:14:01;;;;;;;17.77;10.07;;;-3.80;99.90;;;;;;4996343;28;20078;-84
2021/12/21 02:16:35;;;;;;;27.45;10.00;;;-3.80;99.90;;;;;;4977412;28;20027;-84
2021/12/21 02:19:14;;;;;;;23.38;11.05;;;-3.80;99.90;;;;;;4972765;28;20485;-84
2021/12/21 02:21:46;;;;;;;23.30;11.05;;;-3.90;99.90;;;;;;4994495;28;20034;-84
2021/12/21 02:24:17;;;;;;;24.33;10.80;;;-3.90;99.90;;;;;;4981106;28;20027;-84
2021/12/21 02:26:51;;;;;;;23.73;10.48;;;-3.90;99.90;;;;;;4983668;28;20113;-85
2021/12/21 02:29:24;;;;;;;23.63;11.23;;;-3.90;99.90;;;;;;4967777;28;20050;-84
2021/12/21 02:31:50;;;;;;;23.77;11.18;;;-4.00;99.90;;;;;;4970371;28;20030;-84
2021/12/21 02:34:16;;;;;;;19.98;10.48;;;-4.00;99.90;;;;;;5000630;28;20034;-84
2021/12/21 02:36:42;;;;;;;26.05;11.15;;;-4.00;99.90;;;;;;4992588;28;20037;-85
2021/12/21 02:39:08;;;;;;;26.80;11.60;;;-4.00;99.90;;;;;;4967575;28;20026;-85
2021/12/21 02:41:34;;;;;;;22.75;10.77;;;-4.00;99.90;;;;;;4987033;28;20155;-85
2021/12/21 02:44:00;;;;;;;22.05;11.27;;;-4.10;99.90;;;;;;4970231;28;20036;-84
2021/12/21 02:46:25;;;;;;;23.45;10.68;;;-4.10;99.90;;;;;;4986325;28;20033;-84
2021/12/21 02:48:51;;;;;;;21.58;10.93;;;-4.20;99.90;;;;;;4987683;28;20458;-84
2021/12/21 02:51:16;;;;;;;28.50;11.52;;;-4.20;99.90;;;;;;4976017;28;20029;-84
2021/12/21 02:53:44;;;;;;;18.70;10.65;;;-4.10;99.90;;;;;;4978570;28;20532;-85
2021/12/21 02:56:10;;;;;;;22.17;11.18;;;-4.00;99.90;;;;;;4953694;28;20019;-84
2021/12/21 02:58:35;;;;;;;25.40;10.80;;;-4.00;99.90;;;;;;4986896;28;20556;-84
2021/12/21 03:01:01;;;;;;;24.73;10.93;;;-4.10;99.90;;;;;;4968114;28;20117;-84
2021/12/21 03:03:27;;;;;;;23.55;10.77;;;-4.10;99.90;;;;;;4999805;28;20061;-85
2021/12/21 03:05:55;;;;;;;18.55;10.38;;;-4.10;99.90;;;;;;4971383;28;20057;-85
2021/12/21 03:08:49;;;;;;;24.67;11.55;;;-4.10;99.90;;;;;;4997624;28;20034;-84
2021/12/21 03:11:24;;;;;;;24.42;11.80;;;-4.10;99.90;;;;;;4982461;28;20042;-85
2021/12/21 03:16:18;;;;;;;24.98;10.38;;;-4.10;99.90;;;;;;4984225;28;20050;-84
2021/12/21 03:18:43;;;;;;;21.50;10.73;;;-4.20;99.90;;;;;;4995793;28;20034;-85
2021/12/21 03:21:09;;;;;;;21.42;10.23;;;-4.20;99.90;;;;;;4998698;28;20057;-84
2021/12/21 03:23:34;;;;;;;19.15;10.95;;;-4.20;99.90;;;;;;4951494;28;20092;-85
2021/12/21 03:26:00;;;;;;;21.77;10.98;;;-4.20;99.90;;;;;;4968075;28;20037;-85
2021/12/21 03:28:26;;;;;;;22.88;11.10;;;-4.20;99.90;;;;;;4963367;28;20102;-85
2021/12/21 03:30:51;;;;;;;22.98;10.05;;;-4.20;99.90;;;;;;4985611;28;20022;-85
2021/12/21 03:33:17;;;;;;;22.73;10.93;;;-4.20;99.90;;;;;;4975818;28;20434;-84
2021/12/21 03:35:42;;;;;;;23.92;10.05;;;-4.30;99.90;;;;;;4967018;28;20030;-83
2021/12/21 03:38:08;;;;;;;25.48;10.95;;;-4.30;99.90;;;;;;4965651;28;20565;-84
2021/12/21 03:40:34;;;;;;;22.80;10.77;;;-4.20;99.90;;;;;;4969112;28;20031;-83
2021/12/21 03:43:00;;;;;;;21.20;10.20;;;-4.30;99.90;;;;;;4991302;28;20420;-83
2021/12/21 03:45:26;;;;;;;21.17;9.20;;;-4.20;99.90;;;;;;4985612;28;20491;-81
2021/12/21 03:47:51;;;;;;;24.42;10.65;;;-4.20;99.90;;;;;;4980222;28;20053;-81
2021/12/21 03:50:20;;;;;;;19.52;9.65;;;-4.20;99.90;;;;;;4958240;28;20038;-81
2021/12/21 03:52:45;;;;;;;23.20;9.52;;;-4.20;99.90;;;;;;4972315;28;20045;-81
2021/12/21 03:55:11;;;;;;;19.67;10.18;;;-4.30;99.90;;;;;;4969376;28;20034;-81
2021/12/21 03:57:37;;;;;;;21.15;9.65;;;-4.40;99.90;;;;;;4993643;28;20038;-81
2021/12/21 04:00:07;;;;;;;21.55;9.93;;;-4.40;99.90;;;;;;4967784;28;20051;-81
2021/12/21 04:02:33;;;;;;;19.13;9.00;;;-4.30;99.90;;;;;;4986171;28;20085;-81
2021/12/21 04:04:59;;;;;;;20.63;9.95;;;-4.30;99.90;;;;;;4988287;28;20553;-81
2021/12/21 04:07:25;;;;;;;19.85;9.32;;;-4.30;99.90;;;;;;4993970;28;20037;-80
2021/12/21 04:09:52;;;;;;;19.05;10.88;;;-4.30;99.90;;;;;;4988200;28;20405;-81
2021/12/21 04:12:18;;;;;;;19.23;9.07;;;-4.40;99.90;;;;;;5000044;28;20035;-81
2021/12/21 04:14:43;;;;;;;21.50;9.18;;;-4.40;99.90;;;;;;4956922;28;20030;-81
2021/12/21 04:17:16;;;;;;;16.25;8.18;;;-4.40;99.90;;;;;;4975714;28;20043;-81
2021/12/21 04:19:42;;;;;;;20.77;9.02;;;-4.50;99.90;;;;;;5001419;28;20037;-81
2021/12/21 04:22:07;;;;;;;17.50;9.27;;;-4.50;99.90;;;;;;4985271;28;20042;-81
2021/12/21 04:24:34;;;;;;;18.00;9.88;;;-4.50;99.90;;;;;;4989293;28;20482;-81
2021/12/21 04:26:59;;;;;;;22.60;9.68;;;-4.50;99.90;;;;;;4973513;28;20026;-81
2021/12/21 04:29:25;;;;;;;21.77;9.73;;;-4.40;99.90;;;;;;5020559;28;20370;-81
2021/12/21 04:31:50;;;;;;;20.85;10.07;;;-4.40;99.90;;;;;;4997262;28;20553;-81
2021/12/21 04:34:16;;;;;;;20.77;10.07;;;-4.40;99.90;;;;;;4967413;28;20045;-81
2021/12/21 04:36:44;;;;;;;19.10;9.15;;;-4.40;99.90;;;;;;5001073;28;20375;-81
2021/12/21 04:39:20;;;;;;;25.42;9.98;;;-4.50;99.90;;;;;;4969305;28;20023;-81
2021/12/21 04:41:45;;;;;;;16.58;8.65;;;-4.50;99.90;;;;;;4984357;28;20068;-81
2021/12/21 04:44:11;;;;;;;22.73;9.70;;;-4.60;99.90;;;;;;4986439;28;20113;-81
2021/12/21 04:46:36;;;;;;;16.23;9.20;;;-4.60;99.90;;;;;;4966662;28;20100;-81
2021/12/21 04:49:02;;;;;;;22.08;8.75;;;-4.60;99.90;;;;;;4995302;28;20033;-81
2021/12/21 04:51:27;;;;;;;18.08;9.80;;;-4.60;99.90;;;;;;4985823;28;20136;-81
2021/12/21 04:53:53;;;;;;;18.00;9.95;;;-4.60;99.90;;;;;;4988099;28;20061;-81
2021/12/21 04:56:19;;;;;;;23.83;9.75;;;-4.60;99.90;;;;;;4991184;28;20050;-81
2021/12/21 04:58:44;;;;;;;24.55;11.73;;;-4.60;99.90;;;;;;4968205;28;20104;-81
2021/12/21 05:01:10;;;;;;;21.63;10.93;;;-4.60;99.90;;;;;;5006123;28;20437;-81
2021/12/21 05:03:35;;;;;;;21.27;10.32;;;-4.60;99.90;;;;;;4991290;28;20490;-81
2021/12/21 05:06:01;;;;;;;24.42;10.57;;;-4.60;99.90;;;;;;4972964;28;20036;-81
2021/12/21 05:08:31;;;;;;;20.48;10.40;;;-4.60;99.90;;;;;;5001009;28;20033;-81
2021/12/21 05:11:05;;;;;;;19.95;10.07;;;-4.60;99.90;;;;;;4999535;28;20038;-82
2021/12/21 05:13:32;;;;;;;19.35;10.43;;;-4.60;99.90;;;;;;4989972;28;20141;-82
2021/12/21 05:15:58;;;;;;;22.88;10.63;;;-4.60;99.90;;;;;;4963223;28;20038;-82
2021/12/21 05:18:24;;;;;;;19.70;9.80;;;-4.60;99.90;;;;;;4971429;28;20084;-82
2021/12/21 05:20:50;;;;;;;19.10;9.70;;;-4.70;99.90;;;;;;4971471;28;20031;-81
2021/12/21 05:23:15;;;;;;;27.65;10.98;;;-4.70;99.90;;;;;;4971346;28;20027;-81
2021/12/21 05:25:41;;;;;;;21.75;9.18;;;-4.70;99.90;;;;;;5001058;28;20749;-81
2021/12/21 05:28:07;;;;;;;17.10;9.32;;;-4.80;99.90;;;;;;4983901;28;20460;-81
2021/12/21 05:30:34;;;;;;;28.02;10.23;;;-4.70;99.90;;;;;;4957107;28;20401;-81
2021/12/21 05:32:59;;;;;;;19.08;9.68;;;-4.70;99.90;;;;;;4987558;28;20053;-82
2021/12/21 05:35:26;;;;;;;25.50;9.98;;;-4.80;99.90;;;;;;4987476;28;20026;-81
2021/12/21 05:37:55;;;;;;;21.17;9.75;;;-4.70;99.90;;;;;;4973346;28;20038;-81
2021/12/21 05:40:21;;;;;;;19.13;9.93;;;-4.80;99.90;;;;;;4991247;28;20073;-81
2021/12/21 05:42:47;;;;;;;20.00;9.65;;;-4.80;99.90;;;;;;5004508;28;20069;-82
2021/12/21 05:45:16;;;;;;;20.17;10.23;;;-4.80;99.90;;;;;;4993394;28;20034;-81
2021/12/21 05:47:42;;;;;;;21.13;10.15;;;-4.70;99.90;;;;;;4995691;28;20049;-81
2021/12/21 05:50:10;;;;;;;22.60;10.35;;;-4.80;99.90;;;;;;5001798;28;20500;-81
2021/12/21 05:52:36;;;;;;;23.25;10.48;;;-4.80;99.90;;;;;;4985295;28;20137;-81
2021/12/21 05:55:02;;;;;;;21.80;9.93;;;-4.80;99.90;;;;;;4966075;28;20551;-81
2021/12/21 05:57:28;;;;;;;20.60;11.23;;;-4.90;99.90;;;;;;4998294;28;20038;-81
2021/12/21 05:59:53;;;;;;;21.67;9.95;;;-4.90;99.90;;;;;;4999245;28;20486;-81
2021/12/21 06:02:19;;;;;;;20.35;11.13;;;-4.90;99.90;;;;;;4988197;28;20437;-81
2021/12/21 06:04:45;;;;;;;21.40;9.55;;;-5.00;99.90;;;;;;5005491;28;20038;-82
2021/12/21 06:07:10;;;;;;;17.75;9.55;;;-4.90;99.90;;;;;;4952918;28;20158;-80
2021/12/21 06:09:36;;;;;;;22.23;9.57;;;-4.80;99.90;;;;;;4990740;28;20110;-81
2021/12/21 06:14:52;;;;;;;22.40;10.05;;;-5.00;99.90;;;;;;4964984;28;20569;-80
2021/12/21 06:27:48;;;;;;;20.05;10.38;;;-5.00;99.90;;;;;;4998482;28;20038;-81
2021/12/21 06:30:14;;;;;;;21.33;9.98;;;-4.90;99.90;;;;;;4994508;28;20025;-81
2021/12/21 06:32:39;;;;;;;23.05;10.30;;;-5.00;99.90;;;;;;4981975;28;20041;-81
2021/12/21 06:35:06;;;;;;;20.05;10.88;;;-5.10;99.90;;;;;;4987836;28;20041;-81
2021/12/21 06:37:34;;;;;;;20.17;9.98;;;-5.10;99.90;;;;;;4958367;28;20117;-81
2021/12/21 06:39:59;;;;;;;25.30;10.82;;;-5.10;99.90;;;;;;4982151;28;20191;-81
2021/12/21 06:42:26;;;;;;;17.88;9.73;;;-5.00;99.90;;;;;;4985814;28;20108;-81
2021/12/21 06:44:57;;;;;;;23.40;11.10;;;-5.00;99.90;;;;;;4986696;28;20045;-81
2021/12/21 06:52:51;;;;;;;19.23;9.88;;;-5.00;99.90;;;;;;4997771;28;20037;-80
2021/12/21 06:55:17;;;;;;;17.83;10.23;;;-5.00;99.90;;;;;;4961442;28;20034;-81
2021/12/21 06:57:43;;;;;;;27.63;11.27;;;-5.00;99.90;;;;;;4993204;28;20049;-81
2021/12/21 07:00:11;;;;;;;18.08;10.18;;;-5.00;99.90;;;;;;4981178;28;20030;-81
2021/12/21 07:02:37;;;;;;;21.55;10.18;;;-5.00;99.90;;;;;;4962445;28;20118;-81
2021/12/21 07:05:03;;;;;;;19.40;10.82;;;-5.00;99.90;;;;;;4970061;28;20818;-81
2021/12/21 07:07:28;;;;;;;24.73;11.18;;;-5.10;99.90;;;;;;4970035;28;20085;-81
2021/12/21 07:10:00;;;;;;;24.38;10.45;;;-5.10;99.90;;;;;;4640981;28;10000165;-81
2021/12/21 07:17:58;;;;;;;20.10;9.85;;;-5.10;99.90;;;;;;4962386;28;20045;-81
2021/12/21 07:20:29;;;;;;;22.48;11.07;;;-5.10;99.90;;;;;;4998649;28;20146;-81
2021/12/21 07:22:55;;;;;;;19.02;10.65;;;-5.10;99.90;;;;;;4977125;28;20035;-81
2021/12/21 07:25:21;;;;;;;23.30;9.65;;;-5.20;99.90;;;;;;4981877;28;20038;-80
2021/12/21 07:27:46;;;;;;;20.08;10.93;;;-5.20;99.90;;;;;;4970189;28;20069;-80
2021/12/21 07:30:12;;;;;;;21.23;9.45;;;-5.10;99.90;;;;;;4985692;28;20077;-81
2021/12/21 07:32:38;;;;;;;19.75;9.25;;;-5.20;99.90;;;;;;4979806;28;20244;-80
2021/12/21 07:35:04;;;;;;;20.20;10.02;;;-5.20;99.90;;;;;;4984856;28;20034;-80
2021/12/21 07:37:29;;;;;;;18.20;10.10;;;-5.30;99.90;;;;;;4965450;28;20074;-81
2021/12/21 07:39:55;;;;;;;21.23;10.10;;;-5.40;99.90;;;;;;4994460;28;20034;-81
2021/12/21 07:42:21;;;;;;;16.33;8.63;;;-5.40;99.90;;;;;;4980737;28;20073;-80
2021/12/21 07:44:47;;;;;;;19.02;9.80;;;-5.40;99.90;;;;;;4955762;28;20168;-81
2021/12/21 07:47:12;;;;;;;19.67;10.15;;;-5.40;99.90;;;;;;4959119;28;20045;-81
2021/12/21 07:49:38;;;;;;;20.35;9.95;;;-5.30;99.90;;;;;;4951771;28;20030;-80
2021/12/21 07:52:07;;;;;;;21.98;9.88;;;-5.30;99.90;;;;;;4983985;28;20044;-81
2021/12/21 07:54:33;;;;;;;18.02;9.00;;;-5.30;99.90;;;;;;5015511;28;20085;-80
2021/12/21 07:56:59;;;;;;;18.75;9.95;;;-5.30;99.90;;;;;;4983261;28;20058;-81
2021/12/21 07:59:25;;;;;;;20.30;10.30;;;-5.30;99.90;;;;;;4962795;28;20073;-81
2021/12/21 08:01:51;;;;;;;19.83;10.10;;;-5.20;99.90;;;;;;4966642;28;20034;-81
2021/12/21 08:04:16;;;;;;;17.60;9.43;;;-5.20;99.90;;;;;;4996254;28;20022;-80
2021/12/21 08:06:45;;;;;;;20.80;9.55;;;-5.10;99.90;;;;;;4986929;28;20057;-80
2021/12/21 08:09:11;;;;;;;22.00;9.43;;;-5.10;99.90;;;;;;4985987;28;20038;-80
2021/12/21 08:14:04;;;;;;;19.25;9.35;;;-5.10;99.90;;;;;;4982341;28;20050;-81
2021/12/21 08:16:29;;;;;;;19.45;9.35;;;-5.10;99.90;;;;;;4994631;28;20045;-81
2021/12/21 08:18:55;;;;;;;15.95;8.48;;;-5.00;99.90;;;;;;4950516;28;20715;-80
2021/12/21 08:21:22;;;;;;;18.90;9.40;;;-4.80;99.90;;;;;;4992482;28;20137;-80
2021/12/21 08:23:48;;;;;;;21.33;10.15;;;-4.90;99.90;;;;;;4998207;28;20061;-80
2021/12/21 08:26:14;;;;;;;17.63;10.15;;;-4.90;99.90;;;;;;4977009;28;20517;-81
2021/12/21 08:28:39;;;;;;;21.27;9.95;;;-4.90;99.90;;;;;;4967179;28;20038;-80
2021/12/21 08:31:10;;;;;;;22.95;9.57;;;-4.80;99.90;;;;;;4969293;28;20137;-81
2021/12/21 08:33:38;;;;;;;17.98;9.30;;;-4.80;99.90;;;;;;4969002;28;20030;-81
2021/12/21 08:36:05;;;;;;;21.17;8.85;;;-4.80;99.90;;;;;;4950479;28;20367;-81
2021/12/21 08:38:32;;;;;;;18.38;9.30;;;-4.50;99.90;;;;;;4994117;28;20049;-81
2021/12/21 08:40:59;;;;;;;18.30;7.63;;;-4.40;99.90;;;;;;4971348;28;20054;-80
2021/12/21 08:43:25;;;;;;;23.15;9.50;;;-4.30;99.90;;;;;;4979136;28;20056;-80
2021/12/21 08:45:52;;;;;;;15.20;8.80;;;-4.10;99.90;;;;;;4992416;28;20036;-80
2021/12/21 08:48:20;;;;;;;17.65;7.70;;;-4.00;99.90;;;;;;4970308;28;20072;-80
2021/12/21 08:50:47;;;;;;;19.30;9.40;;;-4.10;99.90;;;;;;4979474;28;20041;-80
2021/12/21 08:53:13;;;;;;;20.55;10.40;;;-4.00;99.90;;;;;;4982107;28;20064;-80
2021/12/21 08:55:40;;;;;;;16.77;9.27;;;-4.10;99.90;;;;;;4976684;28;20084;-80
2021/12/21 08:58:06;;;;;;;15.18;7.53;;;-3.90;99.90;;;;;;4986754;28;20038;-81
2021/12/21 09:00:31;;;;;;;18.25;8.63;;;-3.60;99.90;;;;;;4981013;28;20517;-80
2021/12/21 09:02:57;;;;;;;13.40;8.05;;;-3.50;99.90;;;;;;4994039;28;20113;-80
2021/12/21 09:05:26;;;;;;;25.02;9.95;;;-3.50;99.90;;;;;;4980856;28;20102;-80
2021/12/21 09:07:52;;;;;;;18.30;8.95;;;-3.30;99.90;;;;;;4995187;28;20034;-80
2021/12/21 09:10:18;;;;;;;21.23;9.88;;;-3.50;99.90;;;;;;4978238;28;21550;-81
2021/12/21 09:12:45;;;;;;;24.83;9.10;;;-3.50;99.90;;;;;;4985405;28;20379;-81
2021/12/21 09:15:11;;;;;;;18.92;9.48;;;-3.50;99.90;;;;;;4960804;28;20039;-81
2021/12/21 09:17:36;;;;;;;16.98;8.02;;;-3.40;99.90;;;;;;4999144;28;20034;-81
2021/12/21 09:20:03;;;;;;;17.05;8.77;;;-3.00;99.90;;;;;;4968476;28;20030;-81
2021/12/21 09:22:29;;;;;;;18.05;9.18;;;-3.00;99.90;;;;;;4997307;28;20034;-80
2021/12/21 09:24:56;;;;;;;18.35;8.73;;;-3.10;99.90;;;;;;4994554;28;20038;-80
2021/12/21 09:27:22;;;;;;;14.73;9.55;;;-3.00;99.90;;;;;;4966086;28;20434;-80
2021/12/21 09:29:48;;;;;;;15.32;7.25;;;-2.50;99.90;;;;;;4984074;28;20080;-81
2021/12/21 09:32:15;;;;;;;19.55;8.48;;;-2.30;99.90;;;;;;4965790;28;20038;-80
2021/12/21 09:34:41;;;;;;;14.65;8.25;;;-2.30;99.90;;;;;;4974277;28;20408;-81
2021/12/21 09:37:08;;;;;;;18.98;10.10;;;-2.10;99.90;;;;;;4978735;28;20031;-81
2021/12/21 09:39:34;;;;;;;23.10;10.23;;;-2.10;99.90;;;;;;4993089;28;20030;-81
2021/12/21 09:41:59;;;;;;;17.27;8.68;;;-2.30;99.90;;;;;;4992729;28;20037;-81
2021/12/21 09:44:25;;;;;;;20.85;10.07;;;-2.00;99.90;;;;;;4985719;28;20105;-81
2021/12/21 09:46:51;;;;;;;17.92;9.23;;;-1.80;99.90;;;;;;4976575;28;20109;-81
2021/12/21 09:49:16;;;;;;;15.23;8.60;;;-2.10;99.90;;;;;;4975099;28;20117;-81
2021/12/21 09:51:42;;;;;;;17.75;10.02;;;-1.50;99.90;;;;;;4979761;28;20599;-81
2021/12/21 09:54:08;;;;;;;17.42;10.48;;;-1.60;99.90;;;;;;4992807;28;20035;-81
2021/12/21 09:56:34;;;;;;;15.10;7.28;;;-1.80;99.90;;;;;;4986566;28;20545;-81
2021/12/21 09:59:00;;;;;;;15.75;7.20;;;-1.50;99.90;;;;;;4953307;28;20041;-81
2021/12/21 10:01:26;;;;;;;13.75;8.20;;;-1.10;99.90;;;;;;4983228;28;20042;-81
2021/12/21 10:03:52;;;;;;;14.10;7.53;;;-1.00;99.90;;;;;;4981378;28;20042;-81
2021/12/21 10:06:17;;;;;;;17.00;10.18;;;-1.10;99.90;;;;;;4971795;28;20026;-81
2021/12/21 10:08:43;;;;;;;13.32;8.30;;;-0.90;99.90;;;;;;5002206;28;20456;-80
2021/12/21 10:11:17;;;;;;;12.43;6.82;;;-0.60;99.90;;;;;;4993641;28;20030;-81
2021/12/21 10:13:43;;;;;;;18.63;10.27;;;-0.30;99.90;;;;;;4972174;28;20030;-81
2021/12/21 10:16:11;;;;;;;14.80;6.70;;;-0.30;99.90;;;;;;4969043;28;20030;-82
2021/12/21 10:18:41;;;;;;;23.17;9.35;;;0.00;99.90;;;;;;4980090;28;20495;-81
2021/12/21 10:21:10;;;;;;;14.38;7.60;;;0.10;99.90;;;;;;4972447;28;20038;-81
2021/12/21 10:23:41;;;;;;;16.80;8.77;;;0.30;99.90;;;;;;5000636;28;20034;-82
2021/12/21 10:26:23;;;;;;;16.27;8.63;;;0.50;99.90;;;;;;4958057;28;20038;-82
2021/12/21 10:28:57;;;;;;;15.40;9.63;;;0.70;99.90;;;;;;4997459;28;20045;-81
2021/12/21 10:31:30;;;;;;;13.80;8.13;;;0.70;99.90;;;;;;4999863;28;20038;-82
2021/12/21 10:33:56;;;;;;;14.93;7.10;;;0.80;99.90;;;;;;4981382;28;20034;-81
2021/12/21 10:36:24;;;;;;;10.10;7.65;;;1.00;99.90;;;;;;4972672;28;20057;-81
2021/12/21 10:38:55;;;;;;;11.10;6.40;;;1.20;99.90;;;;;;4975207;28;20034;-81
2021/12/21 10:41:34;;;;;;;12.40;7.53;;;1.20;99.90;;;;;;4973392;28;20038;-81
2021/12/21 10:44:03;;;;;;;13.00;8.30;;;1.50;99.90;;;;;;4978820;28;20029;-81
2021/12/21 10:46:29;;;;;;;17.60;9.95;;;1.60;99.90;;;;;;4969441;28;20035;-81
2021/12/21 10:49:08;;;;;;;15.95;9.00;;;1.30;99.90;;;;;;4959310;28;20514;-81
2021/12/21 10:51:35;;;;;;;12.52;7.70;;;1.60;99.90;;;;;;4970962;28;20041;-81
2021/12/21 10:54:00;;;;;;;11.73;6.95;;;1.70;99.90;;;;;;4986519;28;20038;-81
2021/12/21 10:56:26;;;;;;;16.52;8.63;;;1.70;99.90;;;;;;4974577;28;20077;-81
2021/12/21 10:58:51;;;;;;;13.20;8.45;;;2.00;99.90;;;;;;4974192;28;20034;-81
2021/12/21 11:01:22;;;;;;;14.35;8.45;;;2.00;99.90;;;;;;4991161;28;20029;-81
2021/12/21 11:03:51;;;;;;;18.05;7.47;;;2.30;99.90;;;;;;5003595;28;20034;-81
2021/12/21 11:06:31;;;;;;;11.38;6.97;;;2.50;99.90;;;;;;4999512;28;20050;-81
2021/12/21 11:08:57;;;;;;;14.65;7.45;;;2.20;99.90;;;;;;4968928;28;20065;-81
2021/12/21 11:11:34;;;;;;;9.73;6.88;;;2.00;99.90;;;;;;4966093;28;20041;-81
2021/12/21 11:14:10;;;;;;;13.23;7.68;;;2.20;99.90;;;;;;4965953;28;20054;-81
2021/12/21 11:16:43;;;;;;;13.18;7.30;;;2.10;99.90;;;;;;4985332;28;20038;-81
2021/12/21 11:19:10;;;;;;;10.50;6.20;;;2.00;99.90;;;;;;5000104;28;20512;-81
2021/12/21 11:21:35;;;;;;;12.05;6.60;;;2.50;99.90;;;;;;4956015;28;20519;-82
2021/12/21 11:24:03;;;;;;;9.90;6.80;;;3.20;99.90;;;;;;4992504;28;20030;-82
2021/12/21 11:26:35;;;;;;;10.88;7.13;;;3.40;99.90;;;;;;4990096;28;20034;-82
2021/12/21 11:29:05;;;;;;;12.25;6.85;;;2.90;99.90;;;;;;4960936;28;20487;-82
2021/12/21 11:31:31;;;;;;;14.25;5.88;;;3.00;99.90;;;;;;4987059;28;20029;-82
2021/12/21 11:33:57;;;;;;;11.13;6.65;;;3.50;99.90;;;;;;4953491;28;20425;-82
2021/12/21 11:39:07;;;;;;;8.88;5.63;;;3.80;99.90;;;;;;4978243;28;20080;-82
2021/12/21 11:41:34;;;;;;;11.25;6.95;;;3.30;99.90;;;;;;4993235;28;20062;-82
2021/12/21 11:44:06;;;;;;;10.95;6.90;;;3.60;99.90;;;;;;4998681;28;20538;-82
2021/12/21 11:46:36;;;;;;;9.35;5.32;;;3.40;99.90;;;;;;4994114;28;20033;-82
2021/12/21 11:49:13;;;;;;;10.13;6.18;;;3.90;99.90;;;;;;4997986;28;20379;-82
2021/12/21 11:51:39;;;;;;;11.90;6.45;;;3.50;99.90;;;;;;4986886;28;20442;-82
2021/12/21 11:54:16;;;;;;;11.65;6.22;;;3.60;99.90;;;;;;4974957;28;20030;-82
2021/12/21 11:56:42;;;;;;;8.57;5.43;;;4.20;99.90;;;;;;4960621;28;20068;-83
2021/12/21 11:59:08;;;;;;;10.13;6.38;;;4.00;99.90;;;;;;4999305;28;20058;-82
2021/12/21 12:01:33;;;;;;;10.85;6.25;;;3.80;99.90;;;;;;4996148;28;20042;-82
2021/12/21 12:04:05;;;;;;;12.55;6.28;;;4.30;99.90;;;;;;4983400;28;20046;-82
2021/12/21 12:06:47;;;;;;;11.82;7.00;;;4.90;99.90;;;;;;4994280;28;20049;-82
2021/12/21 12:09:21;;;;;;;8.10;5.30;;;5.10;99.90;;;;;;4967589;28;20034;-82
2021/12/21 12:11:47;;;;;;;11.75;7.45;;;5.10;99.90;;;;;;4993997;28;20038;-82
2021/12/21 12:14:14;;;;;;;28.15;11.02;;;5.20;99.90;;;;;;4990021;28;20088;-82
2021/12/21 12:16:56;;;;;;;16.02;9.85;;;4.90;99.90;;;;;;4995611;28;20045;-83
2021/12/21 12:19:29;;;;;;;19.63;10.15;;;4.20;99.90;;;;;;4980388;28;20088;-82
2021/12/21 12:21:59;;;;;;;17.63;9.27;;;4.20;99.90;;;;;;4972504;28;20807;-82
2021/12/21 12:24:36;;;;;;;14.35;8.80;;;3.70;99.90;;;;;;4970282;28;20113;-82
2021/12/21 12:27:17;;;;;;;16.17;9.30;;;3.90;99.90;;;;;;4998924;28;20030;-82
2021/12/21 12:29:50;;;;;;;14.10;9.35;;;4.40;99.90;;;;;;4976438;28;20046;-82
2021/12/21 12:32:18;;;;;;;15.88;9.80;;;4.20;99.90;;;;;;4978859;28;20049;-83
2021/12/21 12:34:43;;;;;;;15.32;9.85;;;3.80;99.90;;;;;;4988589;28;20828;-82
2021/12/21 12:37:18;;;;;;;14.60;8.75;;;3.30;99.90;;;;;;5005083;28;20026;-82
2021/12/21 12:39:45;;;;;;;14.25;9.43;;;3.90;99.90;;;;;;5010696;28;20034;-83
2021/12/21 12:42:19;;;;;;;15.70;8.90;;;4.60;99.90;;;;;;4953230;28;20022;-82
2021/12/21 12:44:50;;;;;;;19.27;10.25;;;5.00;99.90;;;;;;4962555;28;20033;-83
2021/12/21 12:47:16;;;;;;;15.50;8.65;;;5.00;99.90;;;;;;4972852;28;20112;-83
2021/12/21 12:49:49;;;;;;;19.98;10.52;;;5.80;99.90;;;;;;4989221;28;20070;-83
2021/12/21 12:52:28;;;;;;;23.30;11.77;;;6.00;99.90;;;;;;4987820;28;20258;-83
2021/12/21 12:54:59;;;;;;;25.85;12.45;;;5.60;99.90;;;;;;4984450;28;20030;-83
2021/12/21 12:57:29;;;;;;;22.02;12.15;;;4.60;99.90;;;;;;4958457;28;20109;-83
2021/12/21 12:59:56;;;;;;;18.63;11.70;;;4.30;99.90;;;;;;4981148;28;20041;-83
2021/12/21 13:02:22;;;;;;;23.40;13.27;;;4.40;99.90;;;;;;4971116;28;20169;-83
2021/12/21 13:04:48;;;;;;;26.95;14.85;;;4.80;99.90;;;;;;4984732;28;20121;-83
2021/12/21 13:07:14;;;;;;;23.55;12.25;;;4.60;99.90;;;;;;4989257;28;20033;-83
2021/12/21 13:09:39;;;;;;;22.52;12.63;;;4.10;99.90;;;;;;4970077;28;20510;-83
2021/12/21 13:12:10;;;;;;;24.52;13.25;;;4.00;99.90;;;;;;4979933;28;20030;-83
2021/12/21 13:14:35;;;;;;;13.32;7.30;;;3.60;99.90;;;;;;4970261;28;20031;-83
2021/12/21 13:17:01;;;;;;;20.63;12.43;;;5.30;99.90;;;;;;4985883;28;20030;-83
2021/12/21 13:19:28;;;;;;;24.80;13.60;;;5.10;99.90;;;;;;4989794;28;20031;-83
2021/12/21 13:21:57;;;;;;;19.88;11.77;;;4.90;99.90;;;;;;5007170;28;20113;-83
2021/12/21 13:24:31;;;;;;;26.23;14.02;;;5.10;99.90;;;;;;4991256;28;20030;-82
2021/12/21 13:26:58;;;;;;;15.45;9.65;;;5.30;99.90;;;;;;4974275;28;20026;-83
2021/12/21 13:29:30;;;;;;;14.20;8.73;;;5.90;99.90;;;;;;4985789;28;20033;-83
2021/12/21 13:31:57;;;;;;;12.75;8.13;;;6.20;99.90;;;;;;4986461;28;20576;-83
2021/12/21 13:34:24;;;;;;;21.25;10.77;;;6.60;99.90;;;;;;4974380;28;20112;-83
2021/12/21 13:36:54;;;;;;;20.85;12.82;;;6.90;99.90;;;;;;4957891;28;20035;-83
2021/12/21 13:39:29;;;;;;;18.52;12.13;;;6.60;99.90;;;;;;4973711;28;20038;-83
2021/12/21 13:41:57;;;;;;;21.50;14.33;;;5.90;99.90;;;;;;5001793;28;20402;-83
2021/12/21 13:44:23;;;;;;;24.23;12.90;;;5.20;99.90;;;;;;4991884;28;20042;-83
2021/12/21 13:46:49;;;;;;;27.58;14.05;;;5.10;99.90;;;;;;4972448;28;20064;-83